createdAt,value
2022-09-06T00:01:17.107Z,21.88
2022-09-06T00:06:20.196Z,21.88
2022-09-06T00:11:21.738Z,21.99
2022-09-06T00:16:27.367Z,22.10
2022-09-06T00:21:32.022Z,22.15
2022-09-06T00:26:33.744Z,22.19
2022-09-06T00:31:35.368Z,21.56
2022-09-06T00:36:37.104Z,19.89
2022-09-06T00:41:38.717Z,19.08
2022-09-06T00:46:44.466Z,19.83
2022-09-06T00:51:46.104Z,20.38
2022-09-06T00:56:48.219Z,20.70
2022-09-06T01:01:49.894Z,20.75
2022-09-06T01:06:57.560Z,20.80
2022-09-06T01:12:25.728Z,20.82
2022-09-06T01:18:00.633Z,20.79
2022-09-06T01:23:51.705Z,21.11
2022-09-06T01:28:54.711Z,21.23
2022-09-06T01:34:05.477Z,21.26
2022-09-06T01:39:07.091Z,21.28
2022-09-06T01:44:08.729Z,21.42
2022-09-06T01:49:23.722Z,21.52
2022-09-06T01:54:28.224Z,21.65
2022-09-06T01:59:41.657Z,21.67
2022-09-06T02:04:56.875Z,21.60
2022-09-06T02:10:07.697Z,21.58
2022-09-06T02:15:29.653Z,21.56
2022-09-06T02:20:36.572Z,21.69
2022-09-06T02:25:42.044Z,21.66
2022-09-06T02:30:50.740Z,21.56
2022-09-06T02:35:54.486Z,21.46
2022-09-06T02:40:56.760Z,21.18
2022-09-06T02:45:58.341Z,20.75
2022-09-06T02:51:05.000Z,20.59
2022-09-06T02:56:06.900Z,20.63
2022-09-06T03:01:08.659Z,20.67
2022-09-06T03:06:10.267Z,20.70
2022-09-06T03:11:11.931Z,20.75
2022-09-06T03:16:13.610Z,20.65
2022-09-06T03:21:15.292Z,20.63
2022-09-06T03:26:16.913Z,20.66
2022-09-06T03:31:18.577Z,20.55
2022-09-06T03:36:20.235Z,20.32
2022-09-06T03:41:21.815Z,20.22
2022-09-06T03:46:23.437Z,20.08
2022-09-06T03:51:25.256Z,19.94
2022-09-06T03:56:26.831Z,19.72
2022-09-06T04:01:28.845Z,19.28
2022-09-06T04:06:30.544Z,18.77
2022-09-06T04:11:32.111Z,18.67
2022-09-06T04:16:33.729Z,18.61
2022-09-06T04:21:35.308Z,18.56
2022-09-06T04:26:37.189Z,18.53
2022-09-06T04:31:38.911Z,18.61
2022-09-06T04:36:40.563Z,18.56
2022-09-06T04:41:42.236Z,18.35
2022-09-06T04:46:43.822Z,18.28
2022-09-06T04:51:46.471Z,18.17
2022-09-06T04:56:48.015Z,18.10
2022-09-06T05:01:49.741Z,17.99
2022-09-06T05:07:03.585Z,18.06
2022-09-06T05:12:05.429Z,18.16
2022-09-06T05:17:07.010Z,18.28
2022-09-06T05:22:08.648Z,18.46
2022-09-06T05:27:10.435Z,18.46
2022-09-06T05:32:13.024Z,18.82
2022-09-06T05:37:15.143Z,19.60
2022-09-06T05:42:19.289Z,20.10
2022-09-06T05:47:21.551Z,20.36
2022-09-06T05:52:23.289Z,20.53
2022-09-06T05:57:25.341Z,21.41
2022-09-06T06:02:27.677Z,21.81
2022-09-06T06:07:30.023Z,21.72
2022-09-06T06:12:32.078Z,22.47
2022-09-06T06:17:34.107Z,22.22
2022-09-06T06:22:35.964Z,22.61
2022-09-06T06:27:38.223Z,22.29
2022-09-06T06:32:40.798Z,22.13
2022-09-06T06:37:42.337Z,22.14
2022-09-06T06:42:44.667Z,23.00
2022-09-06T06:47:49.858Z,23.44
2022-09-06T06:52:52.535Z,24.46
2022-09-06T06:57:56.068Z,25.08
2022-09-06T07:02:58.001Z,24.62
2022-09-06T07:08:01.036Z,23.84
2022-09-06T07:13:03.574Z,24.29
2022-09-06T07:18:05.254Z,25.79
2022-09-06T07:28:28.538Z,26.52
2022-09-06T07:33:30.183Z,26.66
2022-09-06T07:38:32.704Z,25.97
2022-09-06T07:43:35.077Z,25.16
2022-09-06T07:48:39.546Z,26.86
2022-09-06T07:53:43.456Z,26.81
2022-09-06T07:58:45.046Z,26.86
2022-09-06T08:03:47.541Z,27.81
2022-09-06T08:08:57.552Z,28.20
2022-09-06T08:14:01.136Z,26.77
2022-09-06T08:19:05.874Z,27.49
2022-09-06T08:24:09.013Z,28.67
2022-09-06T08:29:11.757Z,27.27
2022-09-06T08:34:13.513Z,28.74
2022-09-06T08:39:15.269Z,30.26
2022-09-06T08:49:56.992Z,29.86
2022-09-06T08:55:22.930Z,30.25
2022-09-06T09:00:24.910Z,28.53
2022-09-06T09:05:38.478Z,29.91
2022-09-06T09:10:48.018Z,31.21
2022-09-06T09:15:50.128Z,31.19
2022-09-06T09:20:52.148Z,31.84
2022-09-06T09:25:59.440Z,31.42
2022-09-06T09:31:01.527Z,31.13
2022-09-06T09:36:09.579Z,31.03
2022-09-06T09:41:26.902Z,32.93
2022-09-06T09:46:40.061Z,32.17
2022-09-06T09:51:45.111Z,32.17
2022-09-06T09:56:51.511Z,32.59
2022-09-06T10:01:58.909Z,33.57
2022-09-06T10:07:12.662Z,33.11
2022-09-06T10:12:47.806Z,33.07
2022-09-06T10:17:51.633Z,32.52
2022-09-06T10:23:00.711Z,31.96
2022-09-06T10:28:17.138Z,32.56
2022-09-06T10:33:46.122Z,33.02
2022-09-06T10:39:37.252Z,32.61
2022-09-06T10:45:00.649Z,34.76
2022-09-06T10:50:05.300Z,34.45
2022-09-06T10:55:11.638Z,34.69
2022-09-06T11:00:14.467Z,34.57
2022-09-06T11:10:43.542Z,33.62
2022-09-06T11:15:54.350Z,35.52
2022-09-06T11:21:26.949Z,35.97
2022-09-06T11:27:00.232Z,34.74
2022-09-06T11:32:20.331Z,35.11
2022-09-06T11:37:30.860Z,34.22
2022-09-06T11:42:46.269Z,35.31
2022-09-06T11:47:48.735Z,35.27
2022-09-06T11:53:09.209Z,33.46
2022-09-06T11:58:23.113Z,33.65
2022-09-06T12:09:32.656Z,35.90
2022-09-06T12:14:42.970Z,36.32
2022-09-06T12:20:03.145Z,37.07
2022-09-06T12:25:40.270Z,38.36
2022-09-06T12:30:45.132Z,36.50
2022-09-06T12:36:04.611Z,33.82
2022-09-06T12:41:08.958Z,35.33
2022-09-06T12:46:10.592Z,34.70
2022-09-06T12:51:20.357Z,33.52
2022-09-06T12:56:23.851Z,35.41
2022-09-06T13:01:32.488Z,37.37
2022-09-06T13:06:41.958Z,37.61
2022-09-06T13:11:46.740Z,37.56
2022-09-06T13:16:53.103Z,36.02
2022-09-06T13:21:54.815Z,35.27
2022-09-06T13:26:56.464Z,36.18
2022-09-06T13:32:01.332Z,35.12
2022-09-06T13:37:08.935Z,35.50
2022-09-06T13:42:27.362Z,37.49
2022-09-06T13:47:29.673Z,37.95
2022-09-06T13:52:31.485Z,35.37
2022-09-06T13:57:33.397Z,36.17
2022-09-06T14:02:35.742Z,33.99
2022-09-06T14:07:37.993Z,35.43
2022-09-06T14:12:40.471Z,35.03
2022-09-06T14:17:42.035Z,35.94
2022-09-06T14:22:43.665Z,36.36
2022-09-06T14:27:45.843Z,36.91
2022-09-06T14:32:47.413Z,38.42
2022-09-06T14:37:54.156Z,37.50
2022-09-06T14:42:55.962Z,36.21
2022-09-06T14:47:57.561Z,36.80
2022-09-06T14:53:01.212Z,37.02
2022-09-06T14:58:03.126Z,36.83
2022-09-06T15:03:04.926Z,35.97
2022-09-06T15:08:06.718Z,36.15
2022-09-06T15:13:09.820Z,36.89
2022-09-06T15:18:11.453Z,36.65
2022-09-06T15:23:24.904Z,36.57
2022-09-06T15:28:27.235Z,36.66
2022-09-06T15:33:30.955Z,36.95
2022-09-06T15:38:36.807Z,36.97
2022-09-06T15:43:44.417Z,37.53
2022-09-06T15:48:48.393Z,36.88
2022-09-06T15:53:50.115Z,37.03
2022-09-06T15:58:52.407Z,36.63
2022-09-06T16:04:01.101Z,35.39
2022-09-06T16:09:14.438Z,36.01
2022-09-06T16:14:16.605Z,36.33
2022-09-06T16:19:18.366Z,36.75
2022-09-06T16:24:20.601Z,36.43
2022-09-06T16:29:22.737Z,35.72
2022-09-06T16:34:25.366Z,34.12
2022-09-06T16:39:27.264Z,33.00
2022-09-06T16:44:29.310Z,32.18
2022-09-06T16:49:30.982Z,32.03
2022-09-06T16:54:32.972Z,31.76
2022-09-06T16:59:34.639Z,31.44
2022-09-06T17:04:36.990Z,31.14
2022-09-06T17:09:39.301Z,30.72
2022-09-06T17:14:41.708Z,30.48
2022-09-06T17:19:43.851Z,30.53
2022-09-06T17:24:45.488Z,30.48
2022-09-06T17:29:47.151Z,30.36
2022-09-06T17:34:48.823Z,30.18
2022-09-06T17:39:50.534Z,30.09
2022-09-06T17:44:53.112Z,29.80
2022-09-06T17:49:55.742Z,29.48
2022-09-06T17:54:58.277Z,29.36
2022-09-06T18:00:00.008Z,29.11
2022-09-06T18:05:02.090Z,29.00
2022-09-06T18:10:04.092Z,28.81
2022-09-06T18:15:06.556Z,28.70
2022-09-06T18:20:08.897Z,28.42
2022-09-06T18:25:11.691Z,28.47
2022-09-06T18:30:15.077Z,28.40
2022-09-06T18:35:16.898Z,28.58
2022-09-06T18:40:18.623Z,28.45
2022-09-06T18:45:20.270Z,28.46
2022-09-06T18:50:21.917Z,28.36
2022-09-06T18:55:23.605Z,28.18
2022-09-06T19:00:25.288Z,28.17
2022-09-06T19:05:27.331Z,28.06
2022-09-06T19:10:29.139Z,27.87
2022-09-06T19:15:30.922Z,27.76
2022-09-06T19:20:32.520Z,27.56
2022-09-06T19:25:34.122Z,27.46
2022-09-06T19:30:35.946Z,27.20
2022-09-06T19:35:50.831Z,26.91
2022-09-06T19:41:05.919Z,26.64
2022-09-06T19:46:09.460Z,26.42
2022-09-06T19:51:11.851Z,26.32
2022-09-06T19:56:16.291Z,26.12
2022-09-06T20:01:18.176Z,25.91
2022-09-06T20:06:20.117Z,26.02
2022-09-06T20:11:25.511Z,26.03
2022-09-06T20:16:28.723Z,26.15
2022-09-06T20:21:31.011Z,25.70
2022-09-06T20:26:32.705Z,24.84
2022-09-06T20:31:36.691Z,22.62
2022-09-06T20:36:38.419Z,21.82
2022-09-06T20:41:40.014Z,21.57
2022-09-06T20:46:41.836Z,21.24
2022-09-06T20:51:43.468Z,20.32
2022-09-06T20:56:45.644Z,20.42
2022-09-06T21:01:47.536Z,21.30
2022-09-06T21:06:49.533Z,20.71
2022-09-06T21:11:51.440Z,20.61
2022-09-06T21:16:53.248Z,20.53
2022-09-06T21:21:55.568Z,20.92
2022-09-06T21:26:57.169Z,21.92
2022-09-06T21:31:58.834Z,21.75
2022-09-06T21:37:00.689Z,21.58
2022-09-06T21:42:02.247Z,21.13
2022-09-06T21:47:04.435Z,21.04
2022-09-06T21:52:07.084Z,21.01
2022-09-06T21:57:08.946Z,20.94
2022-09-06T22:02:12.617Z,21.17
2022-09-06T22:07:14.498Z,21.18
2022-09-06T22:12:16.141Z,21.29
2022-09-06T22:17:18.826Z,21.47
2022-09-06T22:22:20.682Z,21.29
2022-09-06T22:27:22.928Z,21.21
2022-09-06T22:32:24.576Z,21.51
2022-09-06T22:37:26.875Z,21.11
2022-09-06T22:42:28.993Z,21.00
2022-09-06T22:47:34.066Z,20.73
2022-09-06T22:52:35.903Z,20.66
2022-09-06T22:57:38.214Z,20.70
2022-09-06T23:02:40.798Z,20.72
2022-09-06T23:07:43.063Z,20.82
2022-09-06T23:12:47.623Z,20.81
2022-09-06T23:17:49.874Z,21.01
2022-09-06T23:22:51.658Z,21.65
2022-09-06T23:27:55.140Z,21.49
2022-09-06T23:32:57.417Z,20.55
2022-09-06T23:37:59.035Z,19.75
2022-09-06T23:43:01.525Z,19.03
2022-09-06T23:48:04.226Z,18.93
2022-09-06T23:53:05.879Z,19.04
2022-09-06T23:58:09.027Z,19.04
